sensor_id;sensor_type;location;lat;lon;timestamp;P1;durP1;ratioP1;P2;durP2;ratioP2
11042;SDS011;5574;48.786;10.120;2022-10-22T00:00:22;4.25;;;2.28;;
11042;SDS011;5574;48.786;10.120;2022-10-22T00:02:48;3.75;;;2.60;;
11042;SDS011;5574;48.786;10.120;2022-10-22T00:05:15;5.32;;;2.10;;
11042;SDS011;5574;48.786;10.120;2022-10-22T00:07:42;3.85;;;2.60;;
11042;SDS011;5574;48.786;10.120;2022-10-22T00:10:09;2.92;;;1.35;;
11042;SDS011;5574;48.786;10.120;2022-10-22T00:12:37;3.45;;;1.27;;
11042;SDS011;5574;48.786;10.120;2022-10-22T00:15:04;1.60;;;1.20;;
11042;SDS011;5574;48.786;10.120;2022-10-22T00:17:32;1.08;;;1.08;;
11042;SDS011;5574;48.786;10.120;2022-10-22T00:19:58;1.67;;;1.10;;
11042;SDS011;5574;48.786;10.120;2022-10-22T00:22:25;2.33;;;1.20;;
11042;SDS011;5574;48.786;10.120;2022-10-22T00:24:52;1.52;;;1.30;;
11042;SDS011;5574;48.786;10.120;2022-10-22T00:27:18;1.38;;;1.27;;
11042;SDS011;5574;48.786;10.120;2022-10-22T00:29:46;1.73;;;1.40;;
11042;SDS011;5574;48.786;10.120;2022-10-22T00:32:13;1.13;;;1.00;;
11042;SDS011;5574;48.786;10.120;2022-10-22T00:34:40;3.60;;;1.20;;
11042;SDS011;5574;48.786;10.120;2022-10-22T00:37:07;1.65;;;1.00;;
11042;SDS011;5574;48.786;10.120;2022-10-22T00:39:34;1.52;;;1.05;;
11042;SDS011;5574;48.786;10.120;2022-10-22T00:42:00;1.30;;;1.10;;
11042;SDS011;5574;48.786;10.120;2022-10-22T00:47:33;3.75;;;1.00;;
11042;SDS011;5574;48.786;10.120;2022-10-22T00:50:03;0.90;;;0.90;;
11042;SDS011;5574;48.786;10.120;2022-10-22T00:52:34;1.27;;;1.17;;
11042;SDS011;5574;48.786;10.120;2022-10-22T00:55:01;1.38;;;1.10;;
11042;SDS011;5574;48.786;10.120;2022-10-22T00:57:29;1.45;;;0.88;;
11042;SDS011;5574;48.786;10.120;2022-10-22T00:59:55;0.90;;;0.90;;
11042;SDS011;5574;48.786;10.120;2022-10-22T01:02:24;0.88;;;0.73;;
11042;SDS011;5574;48.786;10.120;2022-10-22T01:04:51;0.70;;;0.70;;
11042;SDS011;5574;48.786;10.120;2022-10-22T01:07:19;4.93;;;1.00;;
11042;SDS011;5574;48.786;10.120;2022-10-22T01:09:49;2.80;;;0.93;;
11042;SDS011;5574;48.786;10.120;2022-10-22T01:12:27;0.75;;;0.75;;
11042;SDS011;5574;48.786;10.120;2022-10-22T01:15:05;1.75;;;0.75;;
11042;SDS011;5574;48.786;10.120;2022-10-22T01:17:41;1.45;;;0.70;;
11042;SDS011;5574;48.786;10.120;2022-10-22T01:20:22;2.15;;;1.00;;
11042;SDS011;5574;48.786;10.120;2022-10-22T01:23:05;0.98;;;0.95;;
11042;SDS011;5574;48.786;10.120;2022-10-22T01:25:47;2.67;;;1.00;;
11042;SDS011;5574;48.786;10.120;2022-10-22T01:28:22;0.80;;;0.70;;
11042;SDS011;5574;48.786;10.120;2022-10-22T01:31:04;1.15;;;0.80;;
11042;SDS011;5574;48.786;10.120;2022-10-22T01:33:34;0.90;;;0.90;;
11042;SDS011;5574;48.786;10.120;2022-10-22T01:36:02;1.00;;;0.90;;
11042;SDS011;5574;48.786;10.120;2022-10-22T01:38:30;0.75;;;0.75;;
11042;SDS011;5574;48.786;10.120;2022-10-22T01:40:57;2.75;;;0.85;;
11042;SDS011;5574;48.786;10.120;2022-10-22T01:43:25;4.28;;;0.95;;
11042;SDS011;5574;48.786;10.120;2022-10-22T01:45:55;0.82;;;0.80;;
11042;SDS011;5574;48.786;10.120;2022-10-22T01:48:27;1.00;;;0.88;;
11042;SDS011;5574;48.786;10.120;2022-10-22T01:51:03;1.33;;;0.70;;
11042;SDS011;5574;48.786;10.120;2022-10-22T01:53:49;1.17;;;0.85;;
11042;SDS011;5574;48.786;10.120;2022-10-22T01:56:23;2.78;;;0.70;;
11042;SDS011;5574;48.786;10.120;2022-10-22T01:59:06;3.58;;;0.82;;
11042;SDS011;5574;48.786;10.120;2022-10-22T02:01:43;1.55;;;0.70;;
11042;SDS011;5574;48.786;10.120;2022-10-22T02:04:21;2.28;;;1.00;;
11042;SDS011;5574;48.786;10.120;2022-10-22T02:06:51;1.20;;;0.70;;
11042;SDS011;5574;48.786;10.120;2022-10-22T02:09:22;2.95;;;0.65;;
11042;SDS011;5574;48.786;10.120;2022-10-22T02:11:51;0.57;;;0.50;;
11042;SDS011;5574;48.786;10.120;2022-10-22T02:14:19;2.08;;;1.00;;
11042;SDS011;5574;48.786;10.120;2022-10-22T02:16:48;0.98;;;0.68;;
11042;SDS011;5574;48.786;10.120;2022-10-22T02:19:17;1.25;;;0.95;;
11042;SDS011;5574;48.786;10.120;2022-10-22T02:21:49;1.27;;;0.82;;
11042;SDS011;5574;48.786;10.120;2022-10-22T02:24:17;3.50;;;0.90;;
11042;SDS011;5574;48.786;10.120;2022-10-22T02:26:46;1.63;;;0.70;;
11042;SDS011;5574;48.786;10.120;2022-10-22T02:29:19;0.73;;;0.60;;
11042;SDS011;5574;48.786;10.120;2022-10-22T02:31:52;2.42;;;0.55;;
11042;SDS011;5574;48.786;10.120;2022-10-22T02:34:22;1.00;;;0.68;;
11042;SDS011;5574;48.786;10.120;2022-10-22T02:36:52;2.15;;;0.63;;
11042;SDS011;5574;48.786;10.120;2022-10-22T02:39:20;4.28;;;0.70;;
11042;SDS011;5574;48.786;10.120;2022-10-22T02:41:47;0.50;;;0.50;;
11042;SDS011;5574;48.786;10.120;2022-10-22T02:44:14;1.52;;;0.63;;
11042;SDS011;5574;48.786;10.120;2022-10-22T02:46:41;2.70;;;0.50;;
11042;SDS011;5574;48.786;10.120;2022-10-22T02:49:09;0.80;;;0.47;;
11042;SDS011;5574;48.786;10.120;2022-10-22T02:51:36;0.85;;;0.85;;
11042;SDS011;5574;48.786;10.120;2022-10-22T02:54:03;0.98;;;0.98;;
11042;SDS011;5574;48.786;10.120;2022-10-22T02:56:30;1.80;;;1.70;;
11042;SDS011;5574;48.786;10.120;2022-10-22T02:58:56;1.65;;;1.50;;
11042;SDS011;5574;48.786;10.120;2022-10-22T03:01:23;5.45;;;3.80;;
11042;SDS011;5574;48.786;10.120;2022-10-22T03:03:50;5.75;;;3.97;;
11042;SDS011;5574;48.786;10.120;2022-10-22T03:06:18;4.18;;;3.00;;
11042;SDS011;5574;48.786;10.120;2022-10-22T03:08:45;3.60;;;2.35;;
11042;SDS011;5574;48.786;10.120;2022-10-22T03:11:11;2.40;;;0.88;;
11042;SDS011;5574;48.786;10.120;2022-10-22T03:13:38;2.35;;;0.90;;
11042;SDS011;5574;48.786;10.120;2022-10-22T03:16:05;4.65;;;1.40;;
11042;SDS011;5574;48.786;10.120;2022-10-22T03:18:32;3.33;;;1.38;;
11042;SDS011;5574;48.786;10.120;2022-10-22T03:21:03;2.05;;;1.60;;
11042;SDS011;5574;48.786;10.120;2022-10-22T03:23:36;1.17;;;0.65;;
11042;SDS011;5574;48.786;10.120;2022-10-22T03:26:05;1.80;;;1.05;;
11042;SDS011;5574;48.786;10.120;2022-10-22T03:28:32;3.25;;;0.98;;
11042;SDS011;5574;48.786;10.120;2022-10-22T03:31:00;1.73;;;0.77;;
11042;SDS011;5574;48.786;10.120;2022-10-22T03:33:27;0.77;;;0.50;;
11042;SDS011;5574;48.786;10.120;2022-10-22T03:35:54;3.15;;;1.08;;
11042;SDS011;5574;48.786;10.120;2022-10-22T03:38:20;2.03;;;0.77;;
11042;SDS011;5574;48.786;10.120;2022-10-22T03:40:48;1.17;;;0.75;;
11042;SDS011;5574;48.786;10.120;2022-10-22T03:43:15;1.10;;;0.68;;
11042;SDS011;5574;48.786;10.120;2022-10-22T03:45:42;1.83;;;0.70;;
11042;SDS011;5574;48.786;10.120;2022-10-22T03:48:09;1.90;;;0.70;;
11042;SDS011;5574;48.786;10.120;2022-10-22T03:50:36;0.55;;;0.52;;
11042;SDS011;5574;48.786;10.120;2022-10-22T03:53:02;2.40;;;0.68;;
11042;SDS011;5574;48.786;10.120;2022-10-22T03:55:31;0.65;;;0.60;;
11042;SDS011;5574;48.786;10.120;2022-10-22T03:57:59;1.63;;;0.63;;
11042;SDS011;5574;48.786;10.120;2022-10-22T04:00:26;1.88;;;0.90;;
11042;SDS011;5574;48.786;10.120;2022-10-22T04:02:52;1.75;;;0.73;;
11042;SDS011;5574;48.786;10.120;2022-10-22T04:05:19;0.90;;;0.90;;
11042;SDS011;5574;48.786;10.120;2022-10-22T04:07:46;1.80;;;1.08;;
11042;SDS011;5574;48.786;10.120;2022-10-22T04:10:13;2.08;;;1.13;;
11042;SDS011;5574;48.786;10.120;2022-10-22T04:12:39;1.70;;;0.63;;
11042;SDS011;5574;48.786;10.120;2022-10-22T04:15:08;1.65;;;0.75;;
11042;SDS011;5574;48.786;10.120;2022-10-22T04:17:35;2.85;;;0.55;;
11042;SDS011;5574;48.786;10.120;2022-10-22T04:20:02;1.38;;;0.60;;
11042;SDS011;5574;48.786;10.120;2022-10-22T04:22:31;0.50;;;0.50;;
11042;SDS011;5574;48.786;10.120;2022-10-22T04:24:59;0.60;;;0.40;;
11042;SDS011;5574;48.786;10.120;2022-10-22T04:27:28;0.68;;;0.50;;
11042;SDS011;5574;48.786;10.120;2022-10-22T04:29:55;1.88;;;0.50;;
11042;SDS011;5574;48.786;10.120;2022-10-22T04:32:23;0.70;;;0.50;;
11042;SDS011;5574;48.786;10.120;2022-10-22T04:34:50;3.03;;;0.80;;
11042;SDS011;5574;48.786;10.120;2022-10-22T04:37:16;1.40;;;0.75;;
11042;SDS011;5574;48.786;10.120;2022-10-22T04:39:43;1.27;;;0.50;;
11042;SDS011;5574;48.786;10.120;2022-10-22T04:42:10;2.47;;;0.63;;
11042;SDS011;5574;48.786;10.120;2022-10-22T04:44:37;1.73;;;0.50;;
11042;SDS011;5574;48.786;10.120;2022-10-22T04:47:03;0.40;;;0.40;;
11042;SDS011;5574;48.786;10.120;2022-10-22T04:49:31;1.05;;;0.52;;
11042;SDS011;5574;48.786;10.120;2022-10-22T04:51:58;1.27;;;0.50;;
11042;SDS011;5574;48.786;10.120;2022-10-22T04:54:25;0.70;;;0.70;;
11042;SDS011;5574;48.786;10.120;2022-10-22T04:56:51;0.65;;;0.50;;
11042;SDS011;5574;48.786;10.120;2022-10-22T04:59:18;2.45;;;0.65;;
11042;SDS011;5574;48.786;10.120;2022-10-22T05:01:45;3.13;;;0.60;;
11042;SDS011;5574;48.786;10.120;2022-10-22T05:04:12;1.50;;;0.52;;
11042;SDS011;5574;48.786;10.120;2022-10-22T05:06:42;0.88;;;0.70;;
11042;SDS011;5574;48.786;10.120;2022-10-22T05:09:10;1.77;;;0.90;;
11042;SDS011;5574;48.786;10.120;2022-10-22T05:11:40;4.35;;;1.20;;
11042;SDS011;5574;48.786;10.120;2022-10-22T05:14:09;2.25;;;1.02;;
11042;SDS011;5574;48.786;10.120;2022-10-22T05:16:36;1.40;;;1.08;;
11042;SDS011;5574;48.786;10.120;2022-10-22T05:19:03;2.28;;;1.10;;
11042;SDS011;5574;48.786;10.120;2022-10-22T05:21:30;1.50;;;1.05;;
11042;SDS011;5574;48.786;10.120;2022-10-22T05:23:59;1.52;;;1.10;;
11042;SDS011;5574;48.786;10.120;2022-10-22T05:26:27;1.25;;;1.15;;
11042;SDS011;5574;48.786;10.120;2022-10-22T05:28:54;2.90;;;1.33;;
11042;SDS011;5574;48.786;10.120;2022-10-22T05:31:21;1.25;;;1.15;;
11042;SDS011;5574;48.786;10.120;2022-10-22T05:33:47;2.65;;;1.08;;
11042;SDS011;5574;48.786;10.120;2022-10-22T05:36:15;1.27;;;0.70;;
11042;SDS011;5574;48.786;10.120;2022-10-22T05:38:43;2.35;;;0.93;;
11042;SDS011;5574;48.786;10.120;2022-10-22T05:41:12;3.05;;;0.88;;
11042;SDS011;5574;48.786;10.120;2022-10-22T05:43:40;5.68;;;1.10;;
11042;SDS011;5574;48.786;10.120;2022-10-22T05:46:08;2.08;;;0.93;;
11042;SDS011;5574;48.786;10.120;2022-10-22T05:48:35;2.00;;;1.20;;
11042;SDS011;5574;48.786;10.120;2022-10-22T05:51:02;1.33;;;1.30;;
11042;SDS011;5574;48.786;10.120;2022-10-22T05:53:30;7.33;;;1.67;;
11042;SDS011;5574;48.786;10.120;2022-10-22T05:56:01;3.47;;;1.40;;
11042;SDS011;5574;48.786;10.120;2022-10-22T05:58:30;2.08;;;1.88;;
11042;SDS011;5574;48.786;10.120;2022-10-22T06:01:01;1.98;;;1.08;;
11042;SDS011;5574;48.786;10.120;2022-10-22T06:03:28;3.03;;;1.35;;
11042;SDS011;5574;48.786;10.120;2022-10-22T06:05:56;1.95;;;1.40;;
11042;SDS011;5574;48.786;10.120;2022-10-22T06:08:25;2.43;;;1.40;;
11042;SDS011;5574;48.786;10.120;2022-10-22T06:10:52;1.25;;;1.13;;
11042;SDS011;5574;48.786;10.120;2022-10-22T06:13:19;4.80;;;1.00;;
11042;SDS011;5574;48.786;10.120;2022-10-22T06:15:48;1.40;;;1.23;;
11042;SDS011;5574;48.786;10.120;2022-10-22T06:18:16;1.37;;;1.13;;
11042;SDS011;5574;48.786;10.120;2022-10-22T06:20:43;2.50;;;1.63;;
11042;SDS011;5574;48.786;10.120;2022-10-22T06:23:11;2.73;;;1.50;;
11042;SDS011;5574;48.786;10.120;2022-10-22T06:25:38;3.03;;;1.08;;
11042;SDS011;5574;48.786;10.120;2022-10-22T06:28:05;1.52;;;1.20;;
11042;SDS011;5574;48.786;10.120;2022-10-22T06:30:32;1.50;;;1.17;;
11042;SDS011;5574;48.786;10.120;2022-10-22T06:33:00;3.77;;;1.17;;
11042;SDS011;5574;48.786;10.120;2022-10-22T06:35:26;1.83;;;0.90;;
11042;SDS011;5574;48.786;10.120;2022-10-22T06:37:53;2.72;;;0.90;;
11042;SDS011;5574;48.786;10.120;2022-10-22T06:40:20;3.90;;;1.00;;
11042;SDS011;5574;48.786;10.120;2022-10-22T06:42:47;2.17;;;1.13;;
11042;SDS011;5574;48.786;10.120;2022-10-22T06:45:14;2.30;;;0.93;;
11042;SDS011;5574;48.786;10.120;2022-10-22T06:47:40;3.22;;;1.30;;
11042;SDS011;5574;48.786;10.120;2022-10-22T06:50:08;4.88;;;2.38;;
11042;SDS011;5574;48.786;10.120;2022-10-22T06:52:35;1.75;;;1.30;;
11042;SDS011;5574;48.786;10.120;2022-10-22T06:55:02;5.03;;;1.50;;
11042;SDS011;5574;48.786;10.120;2022-10-22T06:57:29;3.28;;;1.48;;
11042;SDS011;5574;48.786;10.120;2022-10-22T06:59:56;1.38;;;1.27;;
11042;SDS011;5574;48.786;10.120;2022-10-22T07:02:22;2.88;;;1.40;;
11042;SDS011;5574;48.786;10.120;2022-10-22T07:04:49;2.28;;;1.40;;
11042;SDS011;5574;48.786;10.120;2022-10-22T07:07:17;3.13;;;2.20;;
11042;SDS011;5574;48.786;10.120;2022-10-22T07:09:44;3.63;;;1.52;;
11042;SDS011;5574;48.786;10.120;2022-10-22T07:12:13;3.22;;;1.20;;
11042;SDS011;5574;48.786;10.120;2022-10-22T07:14:40;2.20;;;1.40;;
11042;SDS011;5574;48.786;10.120;2022-10-22T07:17:07;2.95;;;1.30;;
11042;SDS011;5574;48.786;10.120;2022-10-22T07:19:34;4.28;;;1.73;;
11042;SDS011;5574;48.786;10.120;2022-10-22T07:22:00;2.90;;;1.42;;
11042;SDS011;5574;48.786;10.120;2022-10-22T07:24:29;4.32;;;1.67;;
11042;SDS011;5574;48.786;10.120;2022-10-22T07:26:55;2.58;;;1.80;;
11042;SDS011;5574;48.786;10.120;2022-10-22T07:29:22;2.80;;;2.42;;
11042;SDS011;5574;48.786;10.120;2022-10-22T07:31:49;3.20;;;2.13;;
11042;SDS011;5574;48.786;10.120;2022-10-22T07:34:16;3.85;;;2.15;;
11042;SDS011;5574;48.786;10.120;2022-10-22T07:36:43;3.20;;;2.17;;
11042;SDS011;5574;48.786;10.120;2022-10-22T07:39:09;4.87;;;2.07;;
11042;SDS011;5574;48.786;10.120;2022-10-22T07:41:37;6.05;;;2.42;;
11042;SDS011;5574;48.786;10.120;2022-10-22T07:44:04;4.53;;;3.50;;
11042;SDS011;5574;48.786;10.120;2022-10-22T07:46:31;4.72;;;3.25;;
11042;SDS011;5574;48.786;10.120;2022-10-22T07:48:59;3.50;;;2.80;;
11042;SDS011;5574;48.786;10.120;2022-10-22T07:51:26;6.22;;;3.35;;
11042;SDS011;5574;48.786;10.120;2022-10-22T07:53:52;7.55;;;2.50;;
11042;SDS011;5574;48.786;10.120;2022-10-22T07:56:19;3.33;;;2.80;;
11042;SDS011;5574;48.786;10.120;2022-10-22T07:58:47;6.20;;;2.47;;
11042;SDS011;5574;48.786;10.120;2022-10-22T08:01:14;4.35;;;2.42;;
11042;SDS011;5574;48.786;10.120;2022-10-22T08:03:41;4.17;;;2.50;;
11042;SDS011;5574;48.786;10.120;2022-10-22T08:06:08;2.37;;;2.17;;
11042;SDS011;5574;48.786;10.120;2022-10-22T08:08:37;2.50;;;2.08;;
11042;SDS011;5574;48.786;10.120;2022-10-22T08:11:04;1.80;;;1.70;;
11042;SDS011;5574;48.786;10.120;2022-10-22T08:13:31;1.92;;;1.83;;
11042;SDS011;5574;48.786;10.120;2022-10-22T08:15:59;2.70;;;1.70;;
11042;SDS011;5574;48.786;10.120;2022-10-22T08:18:26;1.80;;;1.50;;
11042;SDS011;5574;48.786;10.120;2022-10-22T08:20:53;3.30;;;1.90;;
11042;SDS011;5574;48.786;10.120;2022-10-22T08:23:20;2.50;;;2.00;;
11042;SDS011;5574;48.786;10.120;2022-10-22T08:25:47;2.40;;;2.20;;
11042;SDS011;5574;48.786;10.120;2022-10-22T08:28:14;2.58;;;2.33;;
11042;SDS011;5574;48.786;10.120;2022-10-22T08:30:41;2.20;;;2.00;;
11042;SDS011;5574;48.786;10.120;2022-10-22T08:33:11;4.38;;;2.00;;
11042;SDS011;5574;48.786;10.120;2022-10-22T08:35:38;2.65;;;2.20;;
11042;SDS011;5574;48.786;10.120;2022-10-22T08:38:05;1.80;;;1.70;;
11042;SDS011;5574;48.786;10.120;2022-10-22T08:40:32;3.55;;;1.88;;
11042;SDS011;5574;48.786;10.120;2022-10-22T08:43:12;1.98;;;1.80;;
11042;SDS011;5574;48.786;10.120;2022-10-22T08:46:13;2.65;;;1.70;;
11042;SDS011;5574;48.786;10.120;2022-10-22T08:48:53;2.22;;;2.03;;
11042;SDS011;5574;48.786;10.120;2022-10-22T08:51:22;6.20;;;2.33;;
11042;SDS011;5574;48.786;10.120;2022-10-22T08:53:59;4.82;;;2.70;;
11042;SDS011;5574;48.786;10.120;2022-10-22T08:56:34;3.65;;;2.65;;
11042;SDS011;5574;48.786;10.120;2022-10-22T08:59:04;2.25;;;2.00;;
11042;SDS011;5574;48.786;10.120;2022-10-22T09:01:38;2.28;;;1.60;;
11042;SDS011;5574;48.786;10.120;2022-10-22T09:04:11;2.75;;;2.10;;
11042;SDS011;5574;48.786;10.120;2022-10-22T09:06:46;3.75;;;2.42;;
11042;SDS011;5574;48.786;10.120;2022-10-22T09:09:14;3.17;;;1.60;;
11042;SDS011;5574;48.786;10.120;2022-10-22T09:11:43;1.83;;;1.17;;
11042;SDS011;5574;48.786;10.120;2022-10-22T09:14:11;2.30;;;2.05;;
11042;SDS011;5574;48.786;10.120;2022-10-22T09:16:50;1.98;;;1.00;;
11042;SDS011;5574;48.786;10.120;2022-10-22T09:19:32;1.23;;;0.80;;
11042;SDS011;5574;48.786;10.120;2022-10-22T09:22:07;0.93;;;0.85;;
11042;SDS011;5574;48.786;10.120;2022-10-22T09:24:43;0.98;;;0.73;;
11042;SDS011;5574;48.786;10.120;2022-10-22T09:27:13;2.63;;;0.80;;
11042;SDS011;5574;48.786;10.120;2022-10-22T09:29:41;4.18;;;0.88;;
11042;SDS011;5574;48.786;10.120;2022-10-22T09:32:08;2.40;;;0.73;;
11042;SDS011;5574;48.786;10.120;2022-10-22T09:34:36;1.38;;;0.70;;
11042;SDS011;5574;48.786;10.120;2022-10-22T09:37:04;1.15;;;0.60;;
11042;SDS011;5574;48.786;10.120;2022-10-22T09:39:34;2.15;;;0.80;;
11042;SDS011;5574;48.786;10.120;2022-10-22T09:42:03;0.70;;;0.70;;
11042;SDS011;5574;48.786;10.120;2022-10-22T09:44:32;3.08;;;0.90;;
11042;SDS011;5574;48.786;10.120;2022-10-22T09:46:59;2.08;;;1.40;;
11042;SDS011;5574;48.786;10.120;2022-10-22T09:49:29;1.00;;;1.00;;
11042;SDS011;5574;48.786;10.120;2022-10-22T09:52:01;1.45;;;0.90;;
11042;SDS011;5574;48.786;10.120;2022-10-22T09:54:36;5.95;;;1.30;;
11042;SDS011;5574;48.786;10.120;2022-10-22T09:57:05;0.60;;;0.60;;
11042;SDS011;5574;48.786;10.120;2022-10-22T09:59:41;1.85;;;0.80;;
11042;SDS011;5574;48.786;10.120;2022-10-22T10:02:10;0.57;;;0.55;;
11042;SDS011;5574;48.786;10.120;2022-10-22T10:04:39;2.15;;;0.93;;
11042;SDS011;5574;48.786;10.120;2022-10-22T10:07:15;1.33;;;0.73;;
11042;SDS011;5574;48.786;10.120;2022-10-22T10:09:44;2.88;;;1.42;;
11042;SDS011;5574;48.786;10.120;2022-10-22T10:12:15;1.75;;;0.60;;
11042;SDS011;5574;48.786;10.120;2022-10-22T10:14:53;0.93;;;0.77;;
11042;SDS011;5574;48.786;10.120;2022-10-22T10:17:29;0.88;;;0.70;;
11042;SDS011;5574;48.786;10.120;2022-10-22T10:20:12;0.90;;;0.88;;
11042;SDS011;5574;48.786;10.120;2022-10-22T10:22:52;2.15;;;0.80;;
11042;SDS011;5574;48.786;10.120;2022-10-22T10:25:30;1.00;;;0.80;;
11042;SDS011;5574;48.786;10.120;2022-10-22T10:28:14;3.30;;;0.82;;
11042;SDS011;5574;48.786;10.120;2022-10-22T10:30:56;1.08;;;0.90;;
11042;SDS011;5574;48.786;10.120;2022-10-22T10:33:32;0.95;;;0.82;;
11042;SDS011;5574;48.786;10.120;2022-10-22T10:36:11;1.55;;;0.80;;
11042;SDS011;5574;48.786;10.120;2022-10-22T10:38:49;1.10;;;1.00;;
11042;SDS011;5574;48.786;10.120;2022-10-22T10:41:24;1.10;;;0.68;;
11042;SDS011;5574;48.786;10.120;2022-10-22T10:44:02;1.38;;;1.27;;
11042;SDS011;5574;48.786;10.120;2022-10-22T10:46:41;1.23;;;1.13;;
11042;SDS011;5574;48.786;10.120;2022-10-22T10:49:15;5.43;;;1.17;;
11042;SDS011;5574;48.786;10.120;2022-10-22T10:51:46;0.95;;;0.60;;
11042;SDS011;5574;48.786;10.120;2022-10-22T10:54:29;2.40;;;0.65;;
11042;SDS011;5574;48.786;10.120;2022-10-22T10:57:08;1.13;;;1.00;;
11042;SDS011;5574;48.786;10.120;2022-10-22T10:59:46;2.58;;;0.80;;
11042;SDS011;5574;48.786;10.120;2022-10-22T11:02:32;0.70;;;0.70;;
11042;SDS011;5574;48.786;10.120;2022-10-22T11:05:25;6.53;;;1.13;;
11042;SDS011;5574;48.786;10.120;2022-10-22T11:07:58;1.15;;;0.70;;
11042;SDS011;5574;48.786;10.120;2022-10-22T11:10:32;1.33;;;0.70;;
11042;SDS011;5574;48.786;10.120;2022-10-22T11:13:05;1.50;;;0.93;;
11042;SDS011;5574;48.786;10.120;2022-10-22T11:15:38;0.75;;;0.75;;
11042;SDS011;5574;48.786;10.120;2022-10-22T11:18:09;0.80;;;0.80;;
11042;SDS011;5574;48.786;10.120;2022-10-22T11:20:44;1.85;;;0.80;;
11042;SDS011;5574;48.786;10.120;2022-10-22T11:23:20;0.95;;;0.77;;
11042;SDS011;5574;48.786;10.120;2022-10-22T11:25:54;1.15;;;0.73;;
11042;SDS011;5574;48.786;10.120;2022-10-22T11:28:22;1.42;;;0.63;;
11042;SDS011;5574;48.786;10.120;2022-10-22T11:30:55;1.13;;;0.82;;
11042;SDS011;5574;48.786;10.120;2022-10-22T11:33:25;1.00;;;0.50;;
11042;SDS011;5574;48.786;10.120;2022-10-22T11:35:58;0.45;;;0.45;;
11042;SDS011;5574;48.786;10.120;2022-10-22T11:38:27;0.98;;;0.50;;
11042;SDS011;5574;48.786;10.120;2022-10-22T11:40:58;1.77;;;0.77;;
11042;SDS011;5574;48.786;10.120;2022-10-22T11:43:27;1.75;;;0.82;;
11042;SDS011;5574;48.786;10.120;2022-10-22T11:45:57;0.43;;;0.30;;
11042;SDS011;5574;48.786;10.120;2022-10-22T11:48:28;0.65;;;0.45;;
11042;SDS011;5574;48.786;10.120;2022-10-22T11:51:02;0.90;;;0.70;;
11042;SDS011;5574;48.786;10.120;2022-10-22T11:53:30;1.00;;;0.63;;
11042;SDS011;5574;48.786;10.120;2022-10-22T11:56:03;1.08;;;0.70;;
11042;SDS011;5574;48.786;10.120;2022-10-22T11:58:48;2.85;;;0.68;;
11042;SDS011;5574;48.786;10.120;2022-10-22T12:01:16;0.65;;;0.52;;
11042;SDS011;5574;48.786;10.120;2022-10-22T12:03:49;1.42;;;1.08;;
11042;SDS011;5574;48.786;10.120;2022-10-22T12:06:17;1.10;;;0.70;;
11042;SDS011;5574;48.786;10.120;2022-10-22T12:08:50;0.88;;;0.70;;
11042;SDS011;5574;48.786;10.120;2022-10-22T12:11:24;0.73;;;0.60;;
11042;SDS011;5574;48.786;10.120;2022-10-22T12:13:57;0.88;;;0.65;;
11042;SDS011;5574;48.786;10.120;2022-10-22T12:16:34;0.60;;;0.60;;
11042;SDS011;5574;48.786;10.120;2022-10-22T12:19:06;2.08;;;0.68;;
11042;SDS011;5574;48.786;10.120;2022-10-22T12:21:39;0.65;;;0.63;;
11042;SDS011;5574;48.786;10.120;2022-10-22T12:24:09;1.88;;;0.73;;
11042;SDS011;5574;48.786;10.120;2022-10-22T12:26:40;1.02;;;0.70;;
11042;SDS011;5574;48.786;10.120;2022-10-22T12:29:08;1.25;;;0.63;;
11042;SDS011;5574;48.786;10.120;2022-10-22T12:31:38;0.88;;;0.70;;
11042;SDS011;5574;48.786;10.120;2022-10-22T12:34:10;1.42;;;0.68;;
11042;SDS011;5574;48.786;10.120;2022-10-22T12:36:39;2.00;;;0.90;;
11042;SDS011;5574;48.786;10.120;2022-10-22T12:39:09;2.00;;;0.82;;
11042;SDS011;5574;48.786;10.120;2022-10-22T12:41:38;1.15;;;0.90;;
11042;SDS011;5574;48.786;10.120;2022-10-22T12:44:06;0.88;;;0.88;;
11042;SDS011;5574;48.786;10.120;2022-10-22T12:46:37;1.27;;;1.17;;
11042;SDS011;5574;48.786;10.120;2022-10-22T12:49:05;1.60;;;0.63;;
11042;SDS011;5574;48.786;10.120;2022-10-22T12:51:35;2.00;;;0.75;;
11042;SDS011;5574;48.786;10.120;2022-10-22T12:54:03;1.98;;;1.00;;
11042;SDS011;5574;48.786;10.120;2022-10-22T12:56:33;1.88;;;1.00;;
11042;SDS011;5574;48.786;10.120;2022-10-22T12:59:02;1.83;;;0.65;;
11042;SDS011;5574;48.786;10.120;2022-10-22T13:01:35;1.08;;;0.90;;
11042;SDS011;5574;48.786;10.120;2022-10-22T13:04:04;1.67;;;0.63;;
11042;SDS011;5574;48.786;10.120;2022-10-22T13:06:43;2.70;;;0.73;;
11042;SDS011;5574;48.786;10.120;2022-10-22T13:09:13;3.20;;;0.93;;
11042;SDS011;5574;48.786;10.120;2022-10-22T13:11:47;1.63;;;0.55;;
11042;SDS011;5574;48.786;10.120;2022-10-22T13:14:17;3.00;;;0.85;;
11042;SDS011;5574;48.786;10.120;2022-10-22T13:17:04;2.33;;;0.93;;
11042;SDS011;5574;48.786;10.120;2022-10-22T13:19:41;1.30;;;0.60;;
11042;SDS011;5574;48.786;10.120;2022-10-22T13:22:23;3.20;;;0.82;;
11042;SDS011;5574;48.786;10.120;2022-10-22T13:24:55;0.77;;;0.77;;
11042;SDS011;5574;48.786;10.120;2022-10-22T13:27:24;1.25;;;0.80;;
11042;SDS011;5574;48.786;10.120;2022-10-22T13:29:51;3.88;;;0.93;;
11042;SDS011;5574;48.786;10.120;2022-10-22T13:32:26;5.47;;;1.08;;
11042;SDS011;5574;48.786;10.120;2022-10-22T13:34:56;0.98;;;0.70;;
11042;SDS011;5574;48.786;10.120;2022-10-22T13:37:24;2.25;;;0.90;;
11042;SDS011;5574;48.786;10.120;2022-10-22T13:39:52;1.65;;;0.60;;
11042;SDS011;5574;48.786;10.120;2022-10-22T13:42:19;2.92;;;0.70;;
11042;SDS011;5574;48.786;10.120;2022-10-22T13:44:45;2.60;;;0.70;;
11042;SDS011;5574;48.786;10.120;2022-10-22T13:47:16;1.75;;;0.65;;
11042;SDS011;5574;48.786;10.120;2022-10-22T13:49:53;2.88;;;0.65;;
11042;SDS011;5574;48.786;10.120;2022-10-22T13:52:26;0.73;;;0.70;;
11042;SDS011;5574;48.786;10.120;2022-10-22T13:54:55;3.50;;;0.80;;
11042;SDS011;5574;48.786;10.120;2022-10-22T13:57:22;1.88;;;0.80;;
11042;SDS011;5574;48.786;10.120;2022-10-22T13:59:49;1.33;;;0.90;;
11042;SDS011;5574;48.786;10.120;2022-10-22T14:02:15;1.60;;;0.80;;
11042;SDS011;5574;48.786;10.120;2022-10-22T14:04:43;3.00;;;0.98;;
11042;SDS011;5574;48.786;10.120;2022-10-22T14:07:12;1.20;;;0.90;;
11042;SDS011;5574;48.786;10.120;2022-10-22T14:09:40;1.60;;;0.88;;
11042;SDS011;5574;48.786;10.120;2022-10-22T14:12:09;2.03;;;1.10;;
11042;SDS011;5574;48.786;10.120;2022-10-22T14:14:37;2.15;;;0.85;;
11042;SDS011;5574;48.786;10.120;2022-10-22T14:17:04;2.20;;;1.05;;
11042;SDS011;5574;48.786;10.120;2022-10-22T14:19:34;1.73;;;0.80;;
11042;SDS011;5574;48.786;10.120;2022-10-22T14:22:00;2.50;;;1.00;;
11042;SDS011;5574;48.786;10.120;2022-10-22T14:24:29;1.20;;;1.10;;
11042;SDS011;5574;48.786;10.120;2022-10-22T14:26:55;1.48;;;0.70;;
11042;SDS011;5574;48.786;10.120;2022-10-22T14:29:22;1.48;;;0.80;;
11042;SDS011;5574;48.786;10.120;2022-10-22T14:31:49;4.03;;;1.30;;
11042;SDS011;5574;48.786;10.120;2022-10-22T14:34:16;1.67;;;0.80;;
11042;SDS011;5574;48.786;10.120;2022-10-22T14:36:43;0.65;;;0.63;;
11042;SDS011;5574;48.786;10.120;2022-10-22T14:39:10;3.50;;;0.90;;
11042;SDS011;5574;48.786;10.120;2022-10-22T14:41:38;1.95;;;1.63;;
11042;SDS011;5574;48.786;10.120;2022-10-22T14:44:06;1.00;;;0.90;;
11042;SDS011;5574;48.786;10.120;2022-10-22T14:46:36;1.35;;;1.27;;
11042;SDS011;5574;48.786;10.120;2022-10-22T14:49:04;4.68;;;1.20;;
11042;SDS011;5574;48.786;10.120;2022-10-22T14:51:30;3.13;;;0.90;;
11042;SDS011;5574;48.786;10.120;2022-10-22T14:53:57;0.63;;;0.60;;
11042;SDS011;5574;48.786;10.120;2022-10-22T14:56:24;5.82;;;2.25;;
11042;SDS011;5574;48.786;10.120;2022-10-22T14:58:52;2.60;;;1.27;;
11042;SDS011;5574;48.786;10.120;2022-10-22T15:01:19;1.75;;;1.10;;
11042;SDS011;5574;48.786;10.120;2022-10-22T15:03:45;5.10;;;1.08;;
11042;SDS011;5574;48.786;10.120;2022-10-22T15:06:12;2.10;;;0.90;;